Time;durP1;ratioP1;P1;durP2;ratioP2;P2;SDS_P1;SDS_P2;PMS_P1;PMS_P2;Temp;Humidity;BMP_temperature;BMP_pressure;BME280_temperature;BME280_humidity;BME280_pressure;Samples;Min_cycle;Max_cycle;Signal;HPM_P1;HPM_P2
2022/12/03 02:17:38;;;;;;;7.77;3.53;;;;;;;1.56;60.43;102060.78;1819843;78;22671;-71
2022/12/03 02:20:07;;;;;;;5.53;3.37;;;;;;;1.57;59.81;102065.05;1793025;80;20887;-72
2022/12/03 02:23:10;;;;;;;5.50;3.00;;;;;;;1.59;59.26;102060.95;1791806;80;21801;-71
2022/12/03 02:25:37;;;;;;;7.00;3.30;;;;;;;1.66;58.72;102063.77;1792725;80;20978;-70
2022/12/03 02:28:04;;;;;;;5.65;3.20;;;;;;;1.77;58.34;102068.23;1793068;80;20875;-70
2022/12/03 02:30:31;;;;;;;7.50;3.77;;;;;;;1.82;58.19;102069.08;1762200;80;21021;-70
2022/12/03 02:32:58;;;;;;;8.20;3.60;;;;;;;1.84;57.98;102071.03;1792905;80;20911;-70
2022/12/03 02:35:29;;;;;;;8.70;3.98;;;;;;;1.85;57.84;102077.48;1792629;80;21126;-72
2022/12/03 02:38:15;;;;;;;6.75;3.40;;;;;;;1.83;57.49;102072.85;1793186;80;21033;-70
2022/12/03 02:40:43;;;;;;;6.65;3.45;;;;;;;1.81;57.41;102076.63;1785029;80;20981;-72
2022/12/03 02:43:10;;;;;;;8.13;3.60;;;;;;;1.76;57.46;102075.81;1781483;80;21061;-71
2022/12/03 02:45:40;;;;;;;6.10;3.33;;;;;;;1.75;57.47;102075.98;1781518;80;21099;-71
2022/12/03 02:48:15;;;;;;;8.65;3.70;;;;;;;1.75;57.45;102077.30;1781445;80;21257;-71
2022/12/03 02:50:50;;;;;;;5.62;3.00;;;;;;;1.60;57.72;102079.72;1781240;80;20994;-71
2022/12/03 02:53:21;;;;;;;7.25;3.52;;;;;;;1.71;57.53;102083.85;1776528;80;21097;-71
2022/12/03 02:55:48;;;;;;;7.03;3.92;;;;;;;1.73;57.58;102081.89;1781217;80;21021;-71
2022/12/03 02:58:15;;;;;;;7.00;3.50;;;;;;;1.75;57.64;102079.94;1751990;80;21511;-71
2022/12/03 03:00:42;;;;;;;7.35;3.83;;;;;;;1.77;57.67;102085.84;1745862;80;21190;-72
2022/12/03 03:03:08;;;;;;;7.60;3.47;;;;;;;1.78;57.63;102084.88;1792759;80;20947;-71
2022/12/03 03:05:36;;;;;;;6.45;3.80;;;;;;;1.78;57.65;102087.52;1762052;80;21086;-71
2022/12/03 03:08:02;;;;;;;5.85;3.33;;;;;;;1.76;57.44;102090.80;1792760;80;20995;-71
2022/12/03 03:10:29;;;;;;;9.03;3.72;;;;;;;1.76;57.49;102086.84;1792779;80;21046;-72
2022/12/03 03:12:56;;;;;;;6.15;3.25;;;;;;;1.77;57.57;102092.43;1792841;80;21120;-71
2022/12/03 03:15:24;;;;;;;10.43;3.85;;;;;;;1.64;57.84;102091.07;1736452;80;20939;-71
2022/12/03 03:17:51;;;;;;;6.65;3.52;;;;;;;1.61;57.90;102087.94;1792373;80;20964;-71
2022/12/03 03:20:18;;;;;;;7.70;3.77;;;;;;;1.57;57.93;102091.88;1792042;80;21011;-71
2022/12/03 03:22:45;;;;;;;6.70;3.33;;;;;;;1.54;58.01;102087.75;1761574;80;20979;-70
2022/12/03 03:25:14;;;;;;;6.80;3.60;;;;;;;1.54;58.17;102093.02;1792076;80;21130;-70
2022/12/03 03:27:41;;;;;;;6.67;3.60;;;;;;;1.53;58.22;102094.02;1791931;79;21558;-70
2022/12/03 03:30:09;;;;;;;6.30;3.75;;;;;;;1.53;58.29;102091.88;1791988;80;20991;-71
2022/12/03 03:32:36;;;;;;;6.50;3.87;;;;;;;1.54;58.25;102090.39;1792059;80;20996;-71
2022/12/03 03:35:04;;;;;;;7.30;3.50;;;;;;;1.56;58.24;102101.59;1792501;80;21481;-72
2022/12/03 03:37:31;;;;;;;6.17;3.30;;;;;;;1.56;58.30;102099.46;1791994;80;21063;-71
2022/12/03 03:39:57;;;;;;;6.30;3.17;;;;;;;1.55;58.37;102099.14;1792197;80;21054;-70
2022/12/03 03:42:23;;;;;;;8.33;3.98;;;;;;;1.58;58.41;102107.54;1791973;80;21117;-70
2022/12/03 03:44:50;;;;;;;6.35;3.40;;;;;;;1.61;58.33;102103.73;1792373;80;21023;-71
2022/12/03 03:47:17;;;;;;;7.35;3.80;;;;;;;1.63;58.36;102099.97;1791533;80;20955;-70
2022/12/03 03:49:44;;;;;;;7.55;3.70;;;;;;;1.61;58.38;102107.69;1792097;80;21127;-71
2022/12/03 03:52:10;;;;;;;7.72;4.25;;;;;;;1.60;58.35;102113.95;1791830;80;20988;-71
2022/12/03 03:54:37;;;;;;;7.58;4.22;;;;;;;1.61;58.44;102115.59;1792603;80;20960;-71
2022/12/03 03:57:04;;;;;;;7.65;3.77;;;;;;;1.61;58.46;102117.77;1791883;80;21180;-71
2022/12/03 03:59:31;;;;;;;7.42;3.65;;;;;;;1.63;58.42;102117.59;1792368;80;20995;-71
2022/12/03 04:01:57;;;;;;;6.45;3.55;;;;;;;1.63;58.40;102121.04;1761114;80;21201;-70
2022/12/03 04:04:25;;;;;;;8.08;4.30;;;;;;;1.59;58.49;102121.53;1791715;80;21077;-71
2022/12/03 04:06:52;;;;;;;9.98;3.77;;;;;;;1.56;58.53;102121.34;1791911;80;20999;-71
2022/12/03 04:09:19;;;;;;;7.28;3.55;;;;;;;1.58;58.58;102124.66;1792406;80;21017;-70
2022/12/03 04:14:31;;;;;;;7.90;3.47;;;;;;;1.55;58.54;102129.42;1792320;80;21154;-71
2022/12/03 04:16:57;;;;;;;6.62;3.00;;;;;;;1.52;58.44;102132.38;1792060;80;20983;-70
2022/12/03 04:19:24;;;;;;;7.80;3.92;;;;;;;1.55;58.53;102133.38;1792087;79;21046;-70
2022/12/03 04:24:25;;;;;;;6.65;3.47;;;;;;;1.55;58.53;102130.24;1768114;80;21046;-70
2022/12/03 04:29:37;;;;;;;7.60;3.90;;;;;;;1.56;58.55;102141.59;1792187;80;20944;-71
2022/12/03 04:37:33;;;;;;;6.53;3.37;;;;;;;1.66;58.24;102140.16;1792023;80;20976;-69
2022/12/03 04:40:00;;;;;;;6.40;3.37;;;;;;;1.68;58.31;102140.34;1791575;80;21212;-69
2022/12/03 04:42:27;;;;;;;9.23;4.10;;;;;;;1.57;58.43;102144.06;1791904;80;21011;-70
2022/12/03 04:44:53;;;;;;;5.72;3.17;;;;;;;1.48;58.64;102140.23;1792173;80;21561;-70
2022/12/03 04:47:20;;;;;;;7.80;3.98;;;;;;;1.48;58.81;102146.34;1791941;80;21177;-70
2022/12/03 04:49:50;;;;;;;7.03;3.77;;;;;;;1.47;58.83;102151.26;1792254;80;21003;-71
2022/12/03 04:52:18;;;;;;;7.12;3.47;;;;;;;1.51;58.88;102150.45;1791978;80;22013;-72
2022/12/03 04:54:45;;;;;;;8.13;4.03;;;;;;;1.53;58.78;102154.58;1792178;80;21431;-72
2022/12/03 04:57:12;;;;;;;6.55;3.60;;;;;;;1.54;58.73;102160.67;1791417;80;21548;-72
2022/12/03 04:59:38;;;;;;;8.80;4.30;;;;;;;1.49;58.90;102159.84;1792153;80;21027;-71
2022/12/03 05:02:05;;;;;;;9.63;4.00;;;;;;;1.48;58.92;102162.61;1791690;80;20936;-72
2022/12/03 05:04:32;;;;;;;9.30;4.22;;;;;;;1.46;59.03;102164.59;1792430;80;21079;-72
2022/12/03 05:06:58;;;;;;;7.47;4.08;;;;;;;1.44;59.06;102162.10;1791678;79;20928;-71
2022/12/03 05:09:25;;;;;;;7.55;3.95;;;;;;;1.43;59.02;102160.95;1792171;80;21051;-71
2022/12/03 05:11:52;;;;;;;9.23;4.42;;;;;;;1.42;59.04;102160.63;1792025;79;21039;-71
2022/12/03 05:14:18;;;;;;;6.62;3.87;;;;;;;1.43;59.05;102166.22;1781607;79;21001;-71
2022/12/03 05:16:45;;;;;;;8.18;4.33;;;;;;;1.39;59.15;102166.53;1780615;80;21915;-71
2022/12/03 05:19:12;;;;;;;8.05;4.00;;;;;;;1.38;59.16;102167.52;1780627;80;21048;-71
2022/12/03 05:21:38;;;;;;;6.78;3.67;;;;;;;1.39;59.23;102170.98;1780540;80;21517;-71
2022/12/03 05:24:05;;;;;;;7.75;4.35;;;;;;;1.41;59.34;102174.27;1780946;80;21069;-71
2022/12/03 05:26:32;;;;;;;9.65;4.58;;;;;;;1.43;59.42;102176.26;1780532;80;21487;-72
2022/12/03 05:29:01;;;;;;;8.03;4.35;;;;;;;1.45;59.44;102176.09;1780815;80;21742;-71
2022/12/03 05:31:27;;;;;;;7.85;4.22;;;;;;;1.43;59.41;102180.20;1780603;80;21010;-71
2022/12/03 05:33:54;;;;;;;8.63;4.60;;;;;;;1.43;59.49;102190.73;1781011;80;20962;-71
2022/12/03 05:36:21;;;;;;;7.17;4.10;;;;;;;1.42;59.56;102189.09;1780425;80;20961;-70
2022/12/03 05:38:47;;;;;;;9.35;4.65;;;;;;;1.43;59.65;102197.32;1780622;80;20946;-70
2022/12/03 05:43:59;;;;;;;8.40;4.45;;;;;;;1.43;59.81;102197.32;1780785;80;21018;-69
2022/12/03 05:46:25;;;;;;;7.60;4.00;;;;;;;1.41;59.80;102199.27;1780629;80;21533;-70
2022/12/03 05:48:52;;;;;;;7.87;3.87;;;;;;;1.41;59.93;102204.54;1780737;80;21002;-71
2022/12/03 05:51:18;;;;;;;9.08;5.12;;;;;;;1.40;60.15;102202.41;1780495;80;21092;-70
2022/12/03 05:53:45;;;;;;;9.90;4.92;;;;;;;1.39;60.20;102206.03;1780927;80;21832;-70
2022/12/03 05:56:11;;;;;;;8.95;4.45;;;;;;;1.37;60.43;102205.84;1783447;80;21047;-71
2022/12/03 05:58:38;;;;;;;9.13;4.95;;;;;;;1.36;60.57;102210.28;1791846;80;21002;-71
2022/12/03 10:42:41;;;;;;;11.83;6.77;;;;;;;1.09;66.26;102350.73;1806335;79;23163;-72
2022/12/03 10:45:19;;;;;;;11.25;6.90;;;;;;;1.11;65.24;102352.71;1783789;80;20934;-73
2022/12/03 10:48:15;;;;;;;11.95;6.80;;;;;;;1.15;64.55;102362.45;1758762;81;21854;-73
2022/12/03 10:51:03;;;;;;;13.32;7.55;;;;;;;1.14;64.28;102362.94;1664917;84;21614;-74
2022/12/03 10:53:32;;;;;;;13.00;7.53;;;;;;;1.17;64.42;102363.95;1665536;84;20997;-73
2022/12/03 10:56:02;;;;;;;12.35;7.53;;;;;;;1.16;64.64;102365.44;1719061;81;21007;-73
2022/12/03 10:58:33;;;;;;;13.38;7.05;;;;;;;1.23;64.87;102363.86;1758785;81;20950;-73
2022/12/03 11:01:02;;;;;;;13.93;7.45;;;;;;;1.30;64.86;102366.70;1758549;81;21209;-73
2022/12/03 11:03:32;;;;;;;12.03;7.42;;;;;;;1.36;64.58;102356.89;1758879;81;21011;-73
2022/12/03 11:05:59;;;;;;;12.75;7.33;;;;;;;1.40;64.35;102359.06;1758026;81;21102;-73
2022/12/03 11:08:30;;;;;;;13.03;7.70;;;;;;;1.49;64.34;102362.59;1726478;81;21051;-73
2022/12/03 11:11:04;;;;;;;14.28;7.50;;;;;;;1.62;64.26;102369.61;1758376;81;21005;-73
2022/12/03 11:13:39;;;;;;;12.80;7.20;;;;;;;1.71;63.75;102370.52;1735596;81;21236;-73
2022/12/03 11:16:11;;;;;;;11.80;7.10;;;;;;;1.75;63.04;102371.03;1764147;80;21035;-73
2022/12/03 11:18:43;;;;;;;12.63;7.33;;;;;;;1.65;62.26;102379.02;1776915;80;21052;-73
2022/12/03 11:21:13;;;;;;;12.07;6.78;;;;;;;1.56;61.72;102376.80;1777567;79;21048;-73
2022/12/03 11:23:51;;;;;;;12.20;6.90;;;;;;;1.44;61.90;102381.14;1747065;82;21483;-73
2022/12/03 11:26:38;;;;;;;10.90;5.78;;;;;;;1.34;61.88;102379.41;1770391;80;21084;-72
2022/12/03 12:44:22;;;;;;;10.57;6.10;;;;;;;0.77;71.27;102426.69;1804333;78;23370;-73
2022/12/03 12:46:50;;;;;;;9.15;5.62;;;;;;;0.72;70.62;102428.42;1781278;79;20974;-73
2022/12/03 12:49:21;;;;;;;10.70;6.33;;;;;;;0.72;70.35;102433.68;1797152;77;21185;-73
2022/12/03 12:51:46;;;;;;;9.45;5.67;;;;;;;0.70;70.19;102440.41;1811697;79;21446;-74
2022/12/03 12:54:15;;;;;;;10.25;5.83;;;;;;;0.69;70.03;102446.66;1809373;78;20941;-72
2022/12/03 12:56:45;;;;;;;9.83;5.62;;;;;;;0.67;69.82;102443.83;1803308;77;21039;-73
2022/12/03 12:59:19;;;;;;;9.58;5.60;;;;;;;0.62;69.70;102448.19;1797276;79;20944;-73
2022/12/03 13:01:47;;;;;;;11.35;6.45;;;;;;;0.56;69.50;102445.30;1814332;79;21802;-73
2022/12/03 13:04:21;;;;;;;10.03;5.60;;;;;;;0.48;69.49;102446.03;1814556;79;20916;-73
2022/12/03 13:06:52;;;;;;;11.73;5.95;;;;;;;0.44;69.60;102445.50;1813193;79;21481;-72
2022/12/03 13:09:21;;;;;;;10.65;5.70;;;;;;;0.43;69.50;102454.86;1814758;79;21000;-73
2022/12/03 13:11:59;;;;;;;10.15;5.47;;;;;;;0.43;69.54;102450.42;1815123;79;21501;-73
2022/12/03 13:14:33;;;;;;;9.15;5.42;;;;;;;0.44;69.48;102456.02;1814711;79;21229;-73
2022/12/03 13:17:00;;;;;;;10.18;5.78;;;;;;;0.44;69.55;102448.62;1814302;79;20999;-74
2022/12/03 13:19:30;;;;;;;11.00;6.08;;;;;;;0.44;69.50;102455.19;1814782;79;21019;-73
2022/12/03 13:21:59;;;;;;;10.32;5.85;;;;;;;0.43;69.52;102461.43;1787834;79;21109;-73
2022/12/03 13:24:38;;;;;;;9.03;5.67;;;;;;;0.45;69.56;102464.73;1813655;79;21462;-72
2022/12/03 13:27:19;;;;;;;10.05;5.90;;;;;;;0.46;69.68;102467.23;1814722;79;21212;-73
2022/12/03 13:30:03;;;;;;;9.55;5.75;;;;;;;0.51;69.75;102471.22;1815231;79;20979;-73
2022/12/03 13:32:33;;;;;;;11.75;6.10;;;;;;;0.53;69.72;102477.14;1814402;79;20983;-73
2022/12/03 13:35:08;;;;;;;9.30;5.58;;;;;;;0.56;69.65;102486.06;1810231;79;21086;-72
2022/12/03 13:37:34;;;;;;;9.93;6.10;;;;;;;0.53;69.62;102483.26;1744665;81;21533;-73
2022/12/03 13:40:36;;;;;;;10.30;5.75;;;;;;;0.48;69.46;102474.13;1736741;81;21791;-72
2022/12/03 13:43:16;;;;;;;10.88;5.47;;;;;;;0.43;69.53;102478.02;1772105;80;21427;-73
2022/12/03 13:45:44;;;;;;;9.25;5.55;;;;;;;0.39;69.42;102471.86;1773794;81;21466;-73
2022/12/03 13:48:32;;;;;;;10.85;5.58;;;;;;;0.37;69.48;102469.88;1773225;81;21032;-73
2022/12/03 13:51:03;;;;;;;9.33;5.58;;;;;;;0.34;69.46;102476.73;1773891;81;21000;-73
2022/12/03 13:53:35;;;;;;;9.13;5.20;;;;;;;0.29;69.42;102482.89;1771966;81;22066;-72
2022/12/03 13:56:27;;;;;;;8.18;4.85;;;;;;;0.20;69.72;102477.53;1773307;81;20941;-73
2022/12/03 13:58:56;;;;;;;7.60;4.37;;;;;;;0.31;69.55;102486.22;1790222;80;21015;-74
2022/12/03 15:00:47;;;;;;;12.13;6.33;;;;;;;0.54;70.99;102489.34;1815969;79;22648;-71
2022/12/03 15:03:13;;;;;;;10.70;6.10;;;;;;;0.57;69.97;102499.58;1780792;80;21031;-71
2022/12/03 15:05:40;;;;;;;9.93;5.62;;;;;;;0.59;69.22;102497.16;1766962;80;21529;-71
2022/12/03 15:08:08;;;;;;;11.75;5.45;;;;;;;0.65;68.75;102497.86;1783195;80;20876;-71
2022/12/03 15:10:35;;;;;;;9.88;5.90;;;;;;;0.68;68.02;102500.21;1782207;80;20943;-71
2022/12/03 15:13:01;;;;;;;9.48;5.33;;;;;;;0.68;67.58;102508.10;1775027;80;20876;-71
2022/12/03 15:15:28;;;;;;;12.55;5.10;;;;;;;0.70;67.16;102516.69;1756172;80;21085;-71
2022/12/03 15:17:54;;;;;;;9.20;5.42;;;;;;;0.72;66.64;102514.39;1757475;81;21216;-72
2022/12/03 15:20:21;;;;;;;8.88;4.70;;;;;;;0.75;66.07;102514.10;1763014;78;21051;-72
2022/12/03 15:22:47;;;;;;;9.30;5.20;;;;;;;0.76;65.71;102513.12;1775267;80;21521;-72
2022/12/03 15:25:14;;;;;;;10.05;5.15;;;;;;;0.75;65.27;102507.53;1723977;83;21084;-72
2022/12/03 15:27:40;;;;;;;9.30;4.87;;;;;;;0.74;64.92;102512.45;1751109;80;20962;-71
2022/12/03 15:30:08;;;;;;;10.82;5.00;;;;;;;0.75;64.55;102509.67;1718461;83;21127;-71
2022/12/03 15:32:35;;;;;;;11.55;6.00;;;;;;;0.76;64.15;102518.38;1746785;82;20996;-72
2022/12/03 15:35:01;;;;;;;8.65;4.90;;;;;;;0.79;63.91;102518.09;1718324;83;20968;-71
2022/12/03 15:37:28;;;;;;;9.48;5.47;;;;;;;0.82;63.86;102523.08;1734155;82;21050;-72
2022/12/03 15:39:54;;;;;;;9.75;5.28;;;;;;;0.84;63.43;102525.09;1716302;82;21030;-71
2022/12/03 15:42:21;;;;;;;10.50;5.25;;;;;;;0.84;63.14;102528.54;1704085;84;21074;-72
2022/12/03 15:44:47;;;;;;;9.23;5.22;;;;;;;0.87;63.13;102527.42;1724920;82;21059;-72
2022/12/03 15:47:13;;;;;;;10.32;5.20;;;;;;;0.89;63.17;102528.95;1733152;82;21039;-72
2022/12/03 15:49:40;;;;;;;8.98;5.33;;;;;;;0.95;63.09;102532.78;1724888;82;21067;-72
2022/12/03 15:52:06;;;;;;;9.23;5.17;;;;;;;0.98;62.81;102532.98;1688249;82;20999;-71
2022/12/03 15:54:33;;;;;;;10.05;5.40;;;;;;;0.97;62.48;102537.42;1685797;84;21112;-71
2022/12/03 15:57:00;;;;;;;9.38;4.92;;;;;;;0.97;61.94;102533.48;1703246;84;20964;-72
2022/12/03 15:59:26;;;;;;;10.38;6.05;;;;;;;0.97;61.82;102533.97;1698978;84;20993;-71
2022/12/03 16:01:53;;;;;;;8.78;5.30;;;;;;;0.97;61.66;102538.73;1687705;83;21487;-71
2022/12/03 16:04:19;;;;;;;9.55;5.30;;;;;;;0.97;61.55;102540.05;1664576;84;20960;-70
2022/12/03 16:06:45;;;;;;;8.53;5.15;;;;;;;0.93;61.40;102542.64;1661270;86;21133;-72
2022/12/03 16:09:12;;;;;;;8.43;4.80;;;;;;;0.92;61.35;102535.70;1679876;85;21068;-72
2022/12/03 16:11:38;;;;;;;8.73;4.90;;;;;;;0.92;61.25;102537.02;1726432;82;20980;-73
2022/12/03 16:14:04;;;;;;;9.75;5.20;;;;;;;0.86;60.65;102526.61;1743716;82;21047;-71
2022/12/03 16:16:31;;;;;;;9.85;5.80;;;;;;;0.82;60.57;102532.28;1731941;80;21012;-72
2022/12/03 16:18:57;;;;;;;10.78;5.42;;;;;;;0.82;60.70;102543.62;1728653;82;21562;-72
2022/12/03 16:21:24;;;;;;;8.68;4.85;;;;;;;0.81;60.69;102537.20;1744070;81;20973;-72
2022/12/03 16:23:50;;;;;;;9.33;5.40;;;;;;;0.81;60.65;102539.84;1741979;82;21118;-72
2022/12/03 16:26:17;;;;;;;8.58;4.87;;;;;;;0.79;60.68;102536.05;1744190;82;21035;-71
2022/12/03 16:28:43;;;;;;;9.68;5.00;;;;;;;0.78;60.51;102536.17;1743813;82;21027;-71
2022/12/03 16:31:10;;;;;;;8.38;4.72;;;;;;;0.79;60.48;102547.03;1743312;82;21135;-72
2022/12/03 16:33:38;;;;;;;9.08;5.10;;;;;;;0.76;60.53;102554.75;1743595;82;22264;-72
2022/12/03 16:36:05;;;;;;;9.35;4.95;;;;;;;0.76;60.58;102548.17;1725173;82;21067;-72
2022/12/03 16:38:32;;;;;;;8.53;5.10;;;;;;;0.76;60.57;102554.75;1743146;82;20960;-71
2022/12/03 16:41:00;;;;;;;9.60;4.53;;;;;;;0.74;60.64;102554.05;1738963;81;21008;-70
2022/12/03 16:43:26;;;;;;;10.00;5.40;;;;;;;0.76;60.66;102556.52;1739587;82;21124;-72
2022/12/03 16:48:22;;;;;;;8.00;4.55;;;;;;;0.63;60.39;102555.05;1732407;82;21094;-71
2022/12/03 16:50:48;;;;;;;8.93;5.15;;;;;;;0.62;60.40;102558.63;1724139;82;20960;-70
2022/12/03 16:53:14;;;;;;;8.88;5.25;;;;;;;0.62;60.56;102558.63;1731117;82;21019;-71
2022/12/03 16:55:41;;;;;;;8.40;4.85;;;;;;;0.63;60.44;102560.80;1743938;82;21261;-70
2022/12/03 16:58:07;;;;;;;7.33;4.25;;;;;;;0.63;60.31;102556.37;1743993;82;21053;-71
2022/12/03 17:00:33;;;;;;;8.13;4.47;;;;;;;0.64;60.22;102565.08;1743220;80;21268;-70
2022/12/03 17:03:00;;;;;;;9.03;5.05;;;;;;;0.64;60.28;102563.28;1731922;81;21114;-71
2022/12/03 17:05:26;;;;;;;8.95;4.22;;;;;;;0.62;60.10;102574.91;1730598;82;21020;-70
2022/12/03 17:07:53;;;;;;;10.15;5.70;;;;;;;0.58;60.21;102573.05;1735247;81;21280;-71
2022/12/03 17:10:19;;;;;;;7.87;4.30;;;;;;;0.60;60.31;102575.55;1737346;80;21059;-71
2022/12/03 17:12:46;;;;;;;8.53;4.97;;;;;;;0.63;60.31;102585.30;1739048;82;21027;-71
2022/12/03 17:15:13;;;;;;;10.20;5.50;;;;;;;0.63;60.25;102586.61;1694619;82;21075;-71
2022/12/03 17:17:39;;;;;;;7.95;4.58;;;;;;;0.65;60.15;102587.28;1669013;85;21036;-73
2022/12/03 17:20:07;;;;;;;9.07;4.71;;;;;;;0.63;60.06;102586.61;1557428;83;10000103;-71
2022/12/03 17:22:35;;;;;;;8.67;4.33;;;;;;;0.59;60.03;102585.24;1434073;85;9999974;-71
2022/12/03 17:25:01;;;;;;;8.50;4.90;;;;;;;0.59;60.18;102585.24;1733210;82;21582;-71
2022/12/03 17:27:28;;;;;;;9.53;4.97;;;;;;;0.60;60.21;102586.89;1686013;83;21067;-72
2022/12/03 17:29:55;;;;;;;8.30;5.10;;;;;;;0.59;60.29;102589.19;1731343;81;21071;-71
2022/12/03 17:32:21;;;;;;;9.08;5.05;;;;;;;0.58;60.41;102592.77;1728220;82;21039;-73
2022/12/03 17:34:48;;;;;;;9.48;5.03;;;;;;;0.55;60.22;102590.91;1720997;82;21098;-70
2022/12/03 17:37:15;;;;;;;9.35;4.87;;;;;;;0.57;60.24;102592.92;1741239;82;22347;-71
2022/12/03 17:39:41;;;;;;;9.25;5.05;;;;;;;0.55;60.28;102597.48;1737039;82;21716;-72
2022/12/03 17:42:07;;;;;;;8.50;4.95;;;;;;;0.52;60.39;102594.64;1730535;82;21628;-71
2022/12/03 17:44:34;;;;;;;9.88;5.60;;;;;;;0.50;60.39;102606.29;1736768;82;21075;-72
2022/12/03 17:47:00;;;;;;;10.13;5.50;;;;;;;0.45;60.44;102606.69;1742072;82;21372;-72
2022/12/03 17:49:26;;;;;;;9.45;5.58;;;;;;;0.43;60.40;102601.59;1739771;82;21039;-72
2022/12/03 17:51:53;;;;;;;9.63;4.78;;;;;;;0.39;60.50;102602.81;1735129;82;21062;-71
2022/12/03 17:54:19;;;;;;;9.55;5.05;;;;;;;0.41;60.64;102607.95;1743113;81;21546;-71
2022/12/03 17:56:46;;;;;;;9.13;4.67;;;;;;;0.42;60.69;102609.11;1731733;82;21055;-72
2022/12/03 17:59:12;;;;;;;12.03;6.17;;;;;;;0.46;60.75;102613.14;1741275;82;21163;-71
2022/12/03 18:01:38;;;;;;;10.78;5.55;;;;;;;0.47;60.74;102610.02;1692848;83;21055;-71
2022/12/03 18:04:05;;;;;;;11.65;5.55;;;;;;;0.45;60.68;102610.63;1737760;82;21122;-71
2022/12/03 18:06:32;;;;;;;10.23;5.92;;;;;;;0.43;60.60;102613.42;1718470;82;21039;-71
2022/12/03 18:08:58;;;;;;;10.48;5.25;;;;;;;0.69;60.33;102612.81;1741662;82;21546;-71
2022/12/03 18:11:25;;;;;;;9.50;5.03;;;;;;;0.84;59.71;102614.53;1741145;80;21181;-73
2022/12/03 18:13:51;;;;;;;9.15;5.30;;;;;;;0.88;59.58;102621.16;1735607;82;21047;-73
2022/12/03 18:16:19;;;;;;;10.05;5.20;;;;;;;0.86;59.30;102625.26;1713595;81;21110;-72
2022/12/03 18:18:46;;;;;;;9.78;5.53;;;;;;;0.83;59.37;102624.72;1738104;80;21102;-71
2022/12/03 18:21:12;;;;;;;10.80;5.50;;;;;;;0.82;59.29;102624.34;1728670;80;21095;-72
2022/12/03 18:23:39;;;;;;;11.50;5.75;;;;;;;0.84;59.25;102631.14;1742373;82;22390;-73
2022/12/03 18:26:07;;;;;;;9.55;5.28;;;;;;;0.86;59.26;102629.20;1737076;82;21628;-70
2022/12/03 18:28:34;;;;;;;9.62;5.14;;;;;;;0.84;59.30;102631.62;1580749;82;9999678;-72
2022/12/03 18:31:00;;;;;;;10.13;5.87;;;;;;;0.60;59.65;102636.03;1736509;81;20967;-71
2022/12/03 18:33:27;;;;;;;9.27;5.23;;;;;;;0.45;60.15;102631.67;1722558;82;20940;-72
2022/12/03 18:35:56;;;;;;;10.78;5.37;;;;;;;0.35;60.23;102632.98;1701272;84;22108;-72
2022/12/03 18:38:26;;;;;;;9.58;5.50;;;;;;;0.29;60.44;102637.96;1729165;82;21050;-79
2022/12/03 18:40:55;;;;;;;9.38;5.08;;;;;;;0.22;60.60;102639.00;1733476;82;21098;-71
2022/12/03 18:43:21;;;;;;;10.70;5.67;;;;;;;0.22;60.61;102643.77;1733934;82;21087;-72
2022/12/03 18:45:48;;;;;;;10.43;5.65;;;;;;;0.20;60.75;102649.66;1736367;82;22508;-72
2022/12/03 18:48:17;;;;;;;11.10;5.97;;;;;;;0.18;60.72;102652.07;1725117;80;21036;-72
2022/12/03 18:50:46;;;;;;;11.50;4.75;;;;;;;0.15;60.79;102658.42;1727105;82;21039;-72
2022/12/03 18:53:17;;;;;;;10.45;5.50;;;;;;;0.18;60.87;102658.16;1726911;82;21607;-71
2022/12/03 18:55:45;;;;;;;10.28;5.95;;;;;;;0.18;60.88;102661.27;1733853;82;22025;-73
2022/12/03 18:58:12;;;;;;;10.60;6.00;;;;;;;0.20;61.00;102661.48;1728672;82;21160;-72
2022/12/03 19:00:39;;;;;;;11.65;5.70;;;;;;;0.22;60.95;102663.96;1741141;82;20972;-71
2022/12/03 19:03:07;;;;;;;11.18;5.80;;;;;;;0.19;60.82;102669.00;1730100;82;21066;-72
2022/12/03 19:05:34;;;;;;;9.38;5.28;;;;;;;0.13;60.81;102670.03;1738172;80;21091;-72
2022/12/03 19:08:02;;;;;;;9.35;5.45;;;;;;;0.13;60.82;102668.26;1714909;82;21075;-71
2022/12/03 19:10:31;;;;;;;10.85;5.83;;;;;;;0.07;60.96;102667.48;1733351;81;21146;-72
2022/12/03 19:12:57;;;;;;;10.80;5.25;;;;;;;0.03;61.05;102668.70;1741429;82;21697;-72
2022/12/03 19:15:24;;;;;;;9.43;5.72;;;;;;;0.02;61.06;102681.50;1721391;82;21078;-72
2022/12/03 19:17:51;;;;;;;9.13;5.25;;;;;;;-0.02;61.05;102678.31;1730819;80;21617;-70
2022/12/03 19:20:20;;;;;;;9.58;5.83;;;;;;;-0.03;61.07;102683.23;1734936;80;21586;-74
2022/12/03 19:22:47;;;;;;;10.43;5.92;;;;;;;-0.06;61.14;102681.36;1736614;80;21115;-73
2022/12/03 19:25:17;;;;;;;9.93;5.65;;;;;;;-0.07;61.21;102686.23;1735844;80;27156;-72
2022/12/03 19:27:44;;;;;;;9.23;5.42;;;;;;;-0.10;61.21;102686.50;1729777;80;21067;-71
2022/12/03 19:30:12;;;;;;;11.22;5.92;;;;;;;-0.10;61.31;102694.39;1739070;81;21118;-72
2022/12/03 19:32:39;;;;;;;10.32;6.47;;;;;;;-0.12;61.43;102694.53;1731139;80;20964;-72
2022/12/03 19:35:06;;;;;;;11.70;6.50;;;;;;;-0.14;61.60;102690.38;1738432;82;21086;-71
2022/12/03 19:37:33;;;;;;;11.05;5.65;;;;;;;-0.15;61.63;102696.11;1736816;82;21062;-72
2022/12/03 19:40:00;;;;;;;11.30;6.15;;;;;;;-0.17;61.68;102695.89;1739823;82;20988;-70
2022/12/03 19:42:27;;;;;;;10.03;5.80;;;;;;;-0.21;61.66;102701.06;1737206;82;22125;-72
2022/12/03 19:44:53;;;;;;;10.13;5.58;;;;;;;-0.27;61.73;102696.68;1732172;82;21040;-73
2022/12/03 19:47:23;;;;;;;10.78;5.92;;;;;;;-0.31;61.81;102708.42;1733104;82;22565;-74
2022/12/03 19:49:52;;;;;;;11.00;6.00;;;;;;;-0.36;61.73;102708.00;1732973;82;21624;-72
2022/12/03 19:52:18;;;;;;;11.60;5.75;;;;;;;-0.38;61.84;102708.61;1733367;82;21090;-72
2022/12/03 19:54:45;;;;;;;10.10;6.20;;;;;;;-0.38;61.96;102711.23;1734808;82;21118;-72
2022/12/03 19:57:12;;;;;;;10.05;6.22;;;;;;;-0.37;62.06;102715.52;1734314;81;21133;-72
2022/12/03 19:59:38;;;;;;;10.03;5.62;;;;;;;-0.39;62.05;102717.94;1731796;80;21130;-72
2022/12/03 20:02:06;;;;;;;11.15;6.37;;;;;;;-0.36;62.09;102722.91;1731638;82;21090;-73
2022/12/03 20:04:33;;;;;;;10.10;5.92;;;;;;;-0.38;62.11;102717.80;1731217;82;21122;-72
2022/12/03 20:07:00;;;;;;;10.75;5.25;;;;;;;-0.39;62.15;102716.14;1730974;82;21657;-73
2022/12/03 20:09:27;;;;;;;12.65;6.67;;;;;;;-0.40;62.28;102723.65;1737291;82;21075;-72
2022/12/03 20:11:54;;;;;;;10.85;6.20;;;;;;;-0.40;62.39;102723.65;1730064;80;21136;-72
2022/12/03 20:14:21;;;;;;;10.40;6.08;;;;;;;-0.41;62.37;102725.94;1720601;81;21063;-72
2022/12/03 21:19:26;;;;;;;11.63;6.93;;;;;;;-1.12;67.34;102752.47;1827469;77;21984;-75
2022/12/03 21:21:52;;;;;;;12.50;7.60;;;;;;;-1.09;66.67;102754.84;1833041;78;21510;-74
2022/12/03 21:24:19;;;;;;;11.68;6.87;;;;;;;-1.11;66.05;102757.61;1827323;78;21110;-73
2022/12/03 21:26:46;;;;;;;11.50;6.92;;;;;;;-1.13;65.53;102749.02;1814932;78;20924;-73
2022/12/03 21:29:12;;;;;;;11.45;6.92;;;;;;;-1.12;65.30;102753.78;1832757;78;21317;-74
2022/12/03 21:31:40;;;;;;;10.90;6.67;;;;;;;-1.11;65.13;102759.41;1824431;77;20975;-74
2022/12/03 21:34:07;;;;;;;11.73;7.12;;;;;;;-1.13;65.00;102756.89;1832758;78;20936;-72
2022/12/03 21:36:34;;;;;;;11.95;6.92;;;;;;;-1.15;64.82;102756.66;1832781;78;21415;-73
2022/12/03 21:39:00;;;;;;;10.93;7.33;;;;;;;-1.19;64.69;102755.59;1832656;78;20908;-73
2022/12/03 21:41:26;;;;;;;11.00;7.15;;;;;;;-1.19;64.67;102758.22;1825215;78;20981;-73
2022/12/03 21:43:53;;;;;;;11.83;7.10;;;;;;;-1.15;64.67;102755.34;1800039;79;21444;-74
2022/12/03 21:46:19;;;;;;;12.53;6.95;;;;;;;-1.15;64.63;102751.41;1800085;79;21038;-73
2022/12/03 21:48:48;;;;;;;12.13;7.20;;;;;;;-1.17;64.56;102753.34;1799953;79;21052;-74
2022/12/03 21:51:16;;;;;;;10.35;6.53;;;;;;;-1.24;64.38;102744.67;1800098;79;20992;-74
2022/12/03 21:53:42;;;;;;;11.00;6.90;;;;;;;-1.26;64.35;102749.67;1800046;79;21043;-73
2022/12/03 21:56:12;;;;;;;10.43;6.37;;;;;;;-1.29;64.42;102748.13;1800235;79;21043;-73
2022/12/03 21:58:38;;;;;;;11.12;6.67;;;;;;;-1.29;64.37;102744.20;1800931;78;21075;-74
2022/12/03 22:01:21;;;;;;;10.03;6.47;;;;;;;-1.31;64.32;102742.20;1800214;79;21173;-73
2022/12/03 22:03:47;;;;;;;11.23;7.27;;;;;;;-1.34;63.96;102743.75;1823331;78;20916;-73
2022/12/03 22:06:14;;;;;;;11.90;7.25;;;;;;;-1.34;63.96;102743.75;1832937;77;21548;-73
2022/12/03 22:08:42;;;;;;;13.15;7.53;;;;;;;-1.37;64.18;102753.66;1816419;78;20968;-74